sensor_id;sensor_type;location;lat;lon;timestamp;temperature;humidity
59469;DHT22;45277;52.768;18.262;2023-08-12T00:00:38;11.20;99.90
59469;DHT22;45277;52.768;18.262;2023-08-12T00:02:29;11.20;99.90
59469;DHT22;45277;52.768;18.262;2023-08-12T00:04:01;11.20;99.90
59469;DHT22;45277;52.768;18.262;2023-08-12T00:05:32;11.20;99.90
59469;DHT22;45277;52.768;18.262;2023-08-12T00:07:06;11.10;99.90
59469;DHT22;45277;52.768;18.262;2023-08-12T00:08:38;11.10;99.90
59469;DHT22;45277;52.768;18.262;2023-08-12T00:10:10;11.10;99.90
59469;DHT22;45277;52.768;18.262;2023-08-12T00:11:42;11.00;99.90
59469;DHT22;45277;52.768;18.262;2023-08-12T00:13:13;11.00;99.90
59469;DHT22;45277;52.768;18.262;2023-08-12T00:14:48;11.00;99.90
59469;DHT22;45277;52.768;18.262;2023-08-12T00:16:19;10.90;99.90
59469;DHT22;45277;52.768;18.262;2023-08-12T00:17:51;10.90;99.90
59469;DHT22;45277;52.768;18.262;2023-08-12T00:19:22;10.90;99.90
59469;DHT22;45277;52.768;18.262;2023-08-12T00:20:54;10.90;99.90
59469;DHT22;45277;52.768;18.262;2023-08-12T00:22:26;10.90;99.90
59469;DHT22;45277;52.768;18.262;2023-08-12T00:23:57;10.90;99.90
59469;DHT22;45277;52.768;18.262;2023-08-12T00:25:28;10.80;99.90
59469;DHT22;45277;52.768;18.262;2023-08-12T00:27:00;10.90;99.90
59469;DHT22;45277;52.768;18.262;2023-08-12T00:28:31;10.90;99.90
59469;DHT22;45277;52.768;18.262;2023-08-12T00:30:04;10.90;99.90
59469;DHT22;45277;52.768;18.262;2023-08-12T00:31:35;10.80;99.90
59469;DHT22;45277;52.768;18.262;2023-08-12T00:33:06;10.80;99.90
59469;DHT22;45277;52.768;18.262;2023-08-12T00:34:38;10.80;99.90
59469;DHT22;45277;52.768;18.262;2023-08-12T00:36:09;10.90;99.90
59469;DHT22;45277;52.768;18.262;2023-08-12T00:37:40;10.90;99.90
59469;DHT22;45277;52.768;18.262;2023-08-12T00:39:12;10.90;99.90
59469;DHT22;45277;52.768;18.262;2023-08-12T00:40:43;10.90;99.90
59469;DHT22;45277;52.768;18.262;2023-08-12T00:42:14;10.90;99.90
59469;DHT22;45277;52.768;18.262;2023-08-12T00:43:46;10.90;99.90
59469;DHT22;45277;52.768;18.262;2023-08-12T00:45:17;10.80;99.90
59469;DHT22;45277;52.768;18.262;2023-08-12T00:46:49;10.80;99.90
59469;DHT22;45277;52.768;18.262;2023-08-12T00:48:21;10.90;99.90
59469;DHT22;45277;52.768;18.262;2023-08-12T00:49:54;10.90;99.90
59469;DHT22;45277;52.768;18.262;2023-08-12T00:51:28;10.90;99.90
59469;DHT22;45277;52.768;18.262;2023-08-12T00:52:59;10.80;99.90
59469;DHT22;45277;52.768;18.262;2023-08-12T00:54:31;10.80;99.90
59469;DHT22;45277;52.768;18.262;2023-08-12T00:56:03;10.90;99.90
59469;DHT22;45277;52.768;18.262;2023-08-12T00:57:34;10.90;99.90
59469;DHT22;45277;52.768;18.262;2023-08-12T00:59:07;10.90;99.90
59469;DHT22;45277;52.768;18.262;2023-08-12T01:00:42;10.80;99.90
59469;DHT22;45277;52.768;18.262;2023-08-12T01:02:13;10.80;99.90
59469;DHT22;45277;52.768;18.262;2023-08-12T01:03:45;10.80;99.90
59469;DHT22;45277;52.768;18.262;2023-08-12T01:05:17;10.80;99.90
59469;DHT22;45277;52.768;18.262;2023-08-12T01:06:48;10.80;99.90
59469;DHT22;45277;52.768;18.262;2023-08-12T01:08:20;10.80;99.90
59469;DHT22;45277;52.768;18.262;2023-08-12T01:09:52;10.80;99.90
59469;DHT22;45277;52.768;18.262;2023-08-12T01:11:26;10.80;99.90
59469;DHT22;45277;52.768;18.262;2023-08-12T01:13:10;10.80;99.90
59469;DHT22;45277;52.768;18.262;2023-08-12T01:15:04;10.70;99.90
59469;DHT22;45277;52.768;18.262;2023-08-12T01:16:43;10.80;99.90
59469;DHT22;45277;52.768;18.262;2023-08-12T01:18:17;10.70;99.90
59469;DHT22;45277;52.768;18.262;2023-08-12T01:19:49;10.70;99.90
59469;DHT22;45277;52.768;18.262;2023-08-12T01:21:24;10.70;99.90
59469;DHT22;45277;52.768;18.262;2023-08-12T01:23:10;10.70;99.90
59469;DHT22;45277;52.768;18.262;2023-08-12T01:24:44;10.80;99.90
59469;DHT22;45277;52.768;18.262;2023-08-12T01:26:15;10.70;99.90
59469;DHT22;45277;52.768;18.262;2023-08-12T01:27:47;10.70;99.90
59469;DHT22;45277;52.768;18.262;2023-08-12T01:29:18;10.60;99.90
59469;DHT22;45277;52.768;18.262;2023-08-12T01:32:54;10.60;99.90
59469;DHT22;45277;52.768;18.262;2023-08-12T01:34:37;10.50;99.90
59469;DHT22;45277;52.768;18.262;2023-08-12T01:36:14;10.50;99.90
59469;DHT22;45277;52.768;18.262;2023-08-12T01:37:49;10.40;99.90
59469;DHT22;45277;52.768;18.262;2023-08-12T01:39:23;10.40;99.90
59469;DHT22;45277;52.768;18.262;2023-08-12T01:40:55;10.30;99.90
59469;DHT22;45277;52.768;18.262;2023-08-12T01:42:28;10.30;99.90
59469;DHT22;45277;52.768;18.262;2023-08-12T01:44:00;10.30;99.90
59469;DHT22;45277;52.768;18.262;2023-08-12T01:45:31;10.30;99.90
59469;DHT22;45277;52.768;18.262;2023-08-12T01:47:09;10.30;99.90
59469;DHT22;45277;52.768;18.262;2023-08-12T01:48:40;10.30;99.90
59469;DHT22;45277;52.768;18.262;2023-08-12T01:50:11;10.30;99.90
59469;DHT22;45277;52.768;18.262;2023-08-12T01:51:43;10.30;99.90
59469;DHT22;45277;52.768;18.262;2023-08-12T01:53:14;10.30;99.90
59469;DHT22;45277;52.768;18.262;2023-08-12T01:54:46;10.30;99.90
59469;DHT22;45277;52.768;18.262;2023-08-12T01:56:17;10.40;99.90
59469;DHT22;45277;52.768;18.262;2023-08-12T01:57:48;10.40;99.90
59469;DHT22;45277;52.768;18.262;2023-08-12T01:59:20;10.40;99.90
59469;DHT22;45277;52.768;18.262;2023-08-12T02:00:52;10.40;99.90
59469;DHT22;45277;52.768;18.262;2023-08-12T02:02:23;10.40;99.90
59469;DHT22;45277;52.768;18.262;2023-08-12T02:03:54;10.40;99.90
59469;DHT22;45277;52.768;18.262;2023-08-12T02:05:26;10.40;99.90
59469;DHT22;45277;52.768;18.262;2023-08-12T02:06:57;10.40;99.90
59469;DHT22;45277;52.768;18.262;2023-08-12T02:08:28;10.40;99.90
59469;DHT22;45277;52.768;18.262;2023-08-12T02:10:00;10.40;99.90
59469;DHT22;45277;52.768;18.262;2023-08-12T02:11:31;10.40;99.90
59469;DHT22;45277;52.768;18.262;2023-08-12T02:13:03;10.40;99.90
59469;DHT22;45277;52.768;18.262;2023-08-12T02:14:34;10.30;99.90
59469;DHT22;45277;52.768;18.262;2023-08-12T02:16:07;10.40;99.90
59469;DHT22;45277;52.768;18.262;2023-08-12T02:17:38;10.40;99.90
59469;DHT22;45277;52.768;18.262;2023-08-12T02:19:10;10.40;99.90
59469;DHT22;45277;52.768;18.262;2023-08-12T02:20:41;10.40;99.90
59469;DHT22;45277;52.768;18.262;2023-08-12T02:22:13;10.50;99.90
59469;DHT22;45277;52.768;18.262;2023-08-12T02:23:44;10.40;99.90
59469;DHT22;45277;52.768;18.262;2023-08-12T02:25:15;10.40;99.90
59469;DHT22;45277;52.768;18.262;2023-08-12T02:26:47;10.40;99.90
59469;DHT22;45277;52.768;18.262;2023-08-12T02:28:18;10.30;99.90
59469;DHT22;45277;52.768;18.262;2023-08-12T02:29:49;10.30;99.90
59469;DHT22;45277;52.768;18.262;2023-08-12T02:31:21;10.30;99.90
59469;DHT22;45277;52.768;18.262;2023-08-12T02:32:52;10.20;99.90
59469;DHT22;45277;52.768;18.262;2023-08-12T02:34:23;10.20;99.90
59469;DHT22;45277;52.768;18.262;2023-08-12T02:35:55;10.20;99.90
59469;DHT22;45277;52.768;18.262;2023-08-12T02:37:26;10.20;99.90
59469;DHT22;45277;52.768;18.262;2023-08-12T02:38:58;10.20;99.90
59469;DHT22;45277;52.768;18.262;2023-08-12T02:40:29;10.20;99.90
59469;DHT22;45277;52.768;18.262;2023-08-12T02:42:00;10.20;99.90
59469;DHT22;45277;52.768;18.262;2023-08-12T02:43:31;10.20;99.90
59469;DHT22;45277;52.768;18.262;2023-08-12T02:45:03;10.20;99.90
59469;DHT22;45277;52.768;18.262;2023-08-12T02:46:35;10.20;99.90
59469;DHT22;45277;52.768;18.262;2023-08-12T02:48:06;10.20;99.90
59469;DHT22;45277;52.768;18.262;2023-08-12T02:49:37;10.20;99.90
59469;DHT22;45277;52.768;18.262;2023-08-12T02:51:09;10.20;99.90
59469;DHT22;45277;52.768;18.262;2023-08-12T02:52:41;10.20;99.90
59469;DHT22;45277;52.768;18.262;2023-08-12T02:54:12;10.20;99.90
59469;DHT22;45277;52.768;18.262;2023-08-12T02:55:46;10.20;99.90
59469;DHT22;45277;52.768;18.262;2023-08-12T02:57:18;10.10;99.90
59469;DHT22;45277;52.768;18.262;2023-08-12T02:58:49;10.10;99.90
59469;DHT22;45277;52.768;18.262;2023-08-12T03:00:20;10.10;99.90
59469;DHT22;45277;52.768;18.262;2023-08-12T03:01:52;10.10;99.90
59469;DHT22;45277;52.768;18.262;2023-08-12T03:03:24;10.10;99.90
59469;DHT22;45277;52.768;18.262;2023-08-12T03:04:55;10.10;99.90
59469;DHT22;45277;52.768;18.262;2023-08-12T03:06:26;10.10;99.90
59469;DHT22;45277;52.768;18.262;2023-08-12T03:07:58;10.10;99.90
59469;DHT22;45277;52.768;18.262;2023-08-12T03:09:32;10.10;99.90
59469;DHT22;45277;52.768;18.262;2023-08-12T03:11:04;10.10;99.90
59469;DHT22;45277;52.768;18.262;2023-08-12T03:12:35;10.10;99.90
59469;DHT22;45277;52.768;18.262;2023-08-12T03:14:07;10.10;99.90
59469;DHT22;45277;52.768;18.262;2023-08-12T03:15:41;10.20;99.90
59469;DHT22;45277;52.768;18.262;2023-08-12T03:17:13;10.20;99.90
59469;DHT22;45277;52.768;18.262;2023-08-12T03:18:45;10.20;99.90
59469;DHT22;45277;52.768;18.262;2023-08-12T03:20:16;10.30;99.90
59469;DHT22;45277;52.768;18.262;2023-08-12T03:21:48;10.30;99.90
59469;DHT22;45277;52.768;18.262;2023-08-12T03:23:19;10.40;99.90
59469;DHT22;45277;52.768;18.262;2023-08-12T03:24:50;10.40;99.90
59469;DHT22;45277;52.768;18.262;2023-08-12T03:26:22;10.50;99.90
59469;DHT22;45277;52.768;18.262;2023-08-12T03:27:53;10.50;99.90
59469;DHT22;45277;52.768;18.262;2023-08-12T03:29:24;10.50;99.90
59469;DHT22;45277;52.768;18.262;2023-08-12T03:30:56;10.50;99.90
59469;DHT22;45277;52.768;18.262;2023-08-12T03:32:27;10.50;99.90
59469;DHT22;45277;52.768;18.262;2023-08-12T03:33:59;10.50;99.90
59469;DHT22;45277;52.768;18.262;2023-08-12T03:35:30;10.50;99.90
59469;DHT22;45277;52.768;18.262;2023-08-12T03:37:01;10.50;99.90
59469;DHT22;45277;52.768;18.262;2023-08-12T03:38:33;10.50;99.90
59469;DHT22;45277;52.768;18.262;2023-08-12T03:40:07;10.50;99.90
59469;DHT22;45277;52.768;18.262;2023-08-12T03:41:39;10.50;99.90
59469;DHT22;45277;52.768;18.262;2023-08-12T03:43:10;10.50;99.90
59469;DHT22;45277;52.768;18.262;2023-08-12T03:44:42;10.50;99.90
59469;DHT22;45277;52.768;18.262;2023-08-12T03:46:14;10.60;99.90
59469;DHT22;45277;52.768;18.262;2023-08-12T03:47:45;10.60;99.90
59469;DHT22;45277;52.768;18.262;2023-08-12T03:49:16;10.60;99.90
59469;DHT22;45277;52.768;18.262;2023-08-12T03:50:48;10.70;99.90
59469;DHT22;45277;52.768;18.262;2023-08-12T03:52:19;10.80;99.90
59469;DHT22;45277;52.768;18.262;2023-08-12T03:53:50;10.80;99.90
59469;DHT22;45277;52.768;18.262;2023-08-12T03:55:22;10.90;99.90
59469;DHT22;45277;52.768;18.262;2023-08-12T03:56:53;10.90;99.90
59469;DHT22;45277;52.768;18.262;2023-08-12T03:58:25;11.00;99.90
59469;DHT22;45277;52.768;18.262;2023-08-12T03:59:57;11.00;99.90
59469;DHT22;45277;52.768;18.262;2023-08-12T04:01:28;11.10;99.90
59469;DHT22;45277;52.768;18.262;2023-08-12T04:02:59;11.10;99.90
59469;DHT22;45277;52.768;18.262;2023-08-12T04:04:31;11.20;99.90
59469;DHT22;45277;52.768;18.262;2023-08-12T04:06:02;11.20;99.90
59469;DHT22;45277;52.768;18.262;2023-08-12T04:07:36;11.30;99.90
59469;DHT22;45277;52.768;18.262;2023-08-12T04:09:08;11.30;99.90
59469;DHT22;45277;52.768;18.262;2023-08-12T04:10:39;11.40;99.90
59469;DHT22;45277;52.768;18.262;2023-08-12T04:12:10;11.50;99.90
59469;DHT22;45277;52.768;18.262;2023-08-12T04:13:42;11.50;99.90
59469;DHT22;45277;52.768;18.262;2023-08-12T04:15:13;11.60;99.90
59469;DHT22;45277;52.768;18.262;2023-08-12T04:16:44;11.60;99.90
59469;DHT22;45277;52.768;18.262;2023-08-12T04:18:16;11.70;99.90
59469;DHT22;45277;52.768;18.262;2023-08-12T04:19:49;11.80;99.90
59469;DHT22;45277;52.768;18.262;2023-08-12T04:21:20;11.90;99.90
59469;DHT22;45277;52.768;18.262;2023-08-12T04:22:52;12.00;99.90
59469;DHT22;45277;52.768;18.262;2023-08-12T04:24:23;12.10;99.90
59469;DHT22;45277;52.768;18.262;2023-08-12T04:25:54;12.20;99.90
59469;DHT22;45277;52.768;18.262;2023-08-12T04:27:26;12.20;99.90
59469;DHT22;45277;52.768;18.262;2023-08-12T04:28:57;12.30;99.90
59469;DHT22;45277;52.768;18.262;2023-08-12T04:30:28;12.40;99.90
59469;DHT22;45277;52.768;18.262;2023-08-12T04:32:00;12.50;99.90
59469;DHT22;45277;52.768;18.262;2023-08-12T04:33:31;12.50;99.90
59469;DHT22;45277;52.768;18.262;2023-08-12T04:35:02;12.60;99.90
59469;DHT22;45277;52.768;18.262;2023-08-12T04:36:34;12.70;99.90
59469;DHT22;45277;52.768;18.262;2023-08-12T04:38:05;12.80;99.90
59469;DHT22;45277;52.768;18.262;2023-08-12T04:39:37;12.80;99.90
59469;DHT22;45277;52.768;18.262;2023-08-12T04:41:08;12.90;99.90
59469;DHT22;45277;52.768;18.262;2023-08-12T04:42:39;13.00;99.90
59469;DHT22;45277;52.768;18.262;2023-08-12T04:44:11;13.10;99.90
59469;DHT22;45277;52.768;18.262;2023-08-12T04:45:45;13.20;99.90
59469;DHT22;45277;52.768;18.262;2023-08-12T04:47:17;13.30;99.90
59469;DHT22;45277;52.768;18.262;2023-08-12T04:48:48;13.40;99.90
59469;DHT22;45277;52.768;18.262;2023-08-12T04:50:20;13.50;99.90
59469;DHT22;45277;52.768;18.262;2023-08-12T04:51:52;13.60;99.90
59469;DHT22;45277;52.768;18.262;2023-08-12T04:53:26;13.70;99.90
59469;DHT22;45277;52.768;18.262;2023-08-12T04:54:57;13.80;99.90
59469;DHT22;45277;52.768;18.262;2023-08-12T04:56:29;13.90;99.90
59469;DHT22;45277;52.768;18.262;2023-08-12T04:58:01;14.00;99.90
59469;DHT22;45277;52.768;18.262;2023-08-12T04:59:33;14.00;99.90
59469;DHT22;45277;52.768;18.262;2023-08-12T05:01:04;14.10;99.90
59469;DHT22;45277;52.768;18.262;2023-08-12T05:02:35;14.10;99.90
59469;DHT22;45277;52.768;18.262;2023-08-12T05:04:07;14.20;99.90
59469;DHT22;45277;52.768;18.262;2023-08-12T05:05:38;14.20;99.90
59469;DHT22;45277;52.768;18.262;2023-08-12T05:07:10;14.30;99.90
59469;DHT22;45277;52.768;18.262;2023-08-12T05:08:41;14.30;99.90
59469;DHT22;45277;52.768;18.262;2023-08-12T05:10:12;14.40;99.90
59469;DHT22;45277;52.768;18.262;2023-08-12T05:11:44;14.50;99.90
59469;DHT22;45277;52.768;18.262;2023-08-12T05:13:16;14.60;99.90
59469;DHT22;45277;52.768;18.262;2023-08-12T05:14:47;14.70;99.90
59469;DHT22;45277;52.768;18.262;2023-08-12T05:16:19;14.80;99.90
59469;DHT22;45277;52.768;18.262;2023-08-12T05:17:51;14.90;99.90
59469;DHT22;45277;52.768;18.262;2023-08-12T05:19:22;15.00;99.90
59469;DHT22;45277;52.768;18.262;2023-08-12T05:20:54;15.00;99.90
59469;DHT22;45277;52.768;18.262;2023-08-12T05:22:25;15.20;99.90
59469;DHT22;45277;52.768;18.262;2023-08-12T05:23:56;15.30;99.90
59469;DHT22;45277;52.768;18.262;2023-08-12T05:25:28;15.40;99.90
59469;DHT22;45277;52.768;18.262;2023-08-12T05:26:59;15.60;99.90
59469;DHT22;45277;52.768;18.262;2023-08-12T05:28:31;15.70;99.90
59469;DHT22;45277;52.768;18.262;2023-08-12T05:30:02;15.80;99.90
59469;DHT22;45277;52.768;18.262;2023-08-12T05:31:34;15.90;99.90
59469;DHT22;45277;52.768;18.262;2023-08-12T05:33:05;16.10;99.90
59469;DHT22;45277;52.768;18.262;2023-08-12T05:34:37;16.20;99.90
59469;DHT22;45277;52.768;18.262;2023-08-12T05:36:08;16.30;99.90
59469;DHT22;45277;52.768;18.262;2023-08-12T05:37:40;16.40;99.90
59469;DHT22;45277;52.768;18.262;2023-08-12T05:39:11;16.40;99.90
59469;DHT22;45277;52.768;18.262;2023-08-12T05:40:43;16.40;99.90
59469;DHT22;45277;52.768;18.262;2023-08-12T05:42:14;16.50;99.90
59469;DHT22;45277;52.768;18.262;2023-08-12T05:43:46;16.70;99.90
59469;DHT22;45277;52.768;18.262;2023-08-12T05:45:18;16.80;99.90
59469;DHT22;45277;52.768;18.262;2023-08-12T05:46:49;16.90;99.90
59469;DHT22;45277;52.768;18.262;2023-08-12T05:48:21;17.00;99.90
59469;DHT22;45277;52.768;18.262;2023-08-12T05:49:52;17.20;99.90
59469;DHT22;45277;52.768;18.262;2023-08-12T05:51:24;17.30;99.90
59469;DHT22;45277;52.768;18.262;2023-08-12T05:52:55;17.30;99.90
59469;DHT22;45277;52.768;18.262;2023-08-12T05:54:26;17.40;99.90
59469;DHT22;45277;52.768;18.262;2023-08-12T05:55:58;17.50;99.90
59469;DHT22;45277;52.768;18.262;2023-08-12T05:57:29;17.60;99.90
59469;DHT22;45277;52.768;18.262;2023-08-12T05:59:01;17.70;99.90
59469;DHT22;45277;52.768;18.262;2023-08-12T06:00:32;17.70;99.90
59469;DHT22;45277;52.768;18.262;2023-08-12T06:02:03;17.80;99.90
59469;DHT22;45277;52.768;18.262;2023-08-12T06:03:35;17.90;99.90
59469;DHT22;45277;52.768;18.262;2023-08-12T06:05:07;18.00;99.90
59469;DHT22;45277;52.768;18.262;2023-08-12T06:06:38;18.10;99.90
59469;DHT22;45277;52.768;18.262;2023-08-12T06:08:10;18.20;99.90
59469;DHT22;45277;52.768;18.262;2023-08-12T06:09:42;18.30;99.90
59469;DHT22;45277;52.768;18.262;2023-08-12T06:11:13;18.30;99.90
59469;DHT22;45277;52.768;18.262;2023-08-12T06:12:45;18.40;99.90
59469;DHT22;45277;52.768;18.262;2023-08-12T06:14:16;18.50;99.90
59469;DHT22;45277;52.768;18.262;2023-08-12T06:15:47;18.50;99.90
59469;DHT22;45277;52.768;18.262;2023-08-12T06:17:19;18.60;99.90
59469;DHT22;45277;52.768;18.262;2023-08-12T06:18:50;18.70;99.90
59469;DHT22;45277;52.768;18.262;2023-08-12T06:20:23;18.70;99.90
59469;DHT22;45277;52.768;18.262;2023-08-12T06:21:55;18.70;99.90
59469;DHT22;45277;52.768;18.262;2023-08-12T06:23:26;18.80;99.90
59469;DHT22;45277;52.768;18.262;2023-08-12T06:24:57;18.90;99.90
59469;DHT22;45277;52.768;18.262;2023-08-12T06:26:29;18.90;99.90
59469;DHT22;45277;52.768;18.262;2023-08-12T06:28:00;19.00;99.90
59469;DHT22;45277;52.768;18.262;2023-08-12T06:29:32;19.00;99.90
59469;DHT22;45277;52.768;18.262;2023-08-12T06:31:04;19.10;99.90
59469;DHT22;45277;52.768;18.262;2023-08-12T06:32:35;19.20;99.90
59469;DHT22;45277;52.768;18.262;2023-08-12T06:34:07;19.30;99.90
59469;DHT22;45277;52.768;18.262;2023-08-12T06:35:38;19.50;99.90
59469;DHT22;45277;52.768;18.262;2023-08-12T06:37:10;19.50;99.90
59469;DHT22;45277;52.768;18.262;2023-08-12T06:38:42;19.60;93.60
59469;DHT22;45277;52.768;18.262;2023-08-12T06:40:13;19.70;72.40
59469;DHT22;45277;52.768;18.262;2023-08-12T06:41:45;19.70;90.40
59469;DHT22;45277;52.768;18.262;2023-08-12T06:43:16;19.80;80.60
59469;DHT22;45277;52.768;18.262;2023-08-12T06:44:59;19.80;80.20
59469;DHT22;45277;52.768;18.262;2023-08-12T06:46:31;19.90;73.70
59469;DHT22;45277;52.768;18.262;2023-08-12T06:48:02;20.00;82.20
59469;DHT22;45277;52.768;18.262;2023-08-12T06:49:34;20.00;88.90
59469;DHT22;45277;52.768;18.262;2023-08-12T06:51:05;20.20;90.90
59469;DHT22;45277;52.768;18.262;2023-08-12T06:52:41;20.30;95.30
59469;DHT22;45277;52.768;18.262;2023-08-12T06:54:13;20.50;99.90
59469;DHT22;45277;52.768;18.262;2023-08-12T06:55:44;20.60;86.10
59469;DHT22;45277;52.768;18.262;2023-08-12T06:57:17;20.70;57.80
59469;DHT22;45277;52.768;18.262;2023-08-12T06:58:49;20.60;52.90
59469;DHT22;45277;52.768;18.262;2023-08-12T07:00:20;20.60;59.50
59469;DHT22;45277;52.768;18.262;2023-08-12T07:01:52;20.70;69.90
59469;DHT22;45277;52.768;18.262;2023-08-12T07:03:24;20.80;58.90
59469;DHT22;45277;52.768;18.262;2023-08-12T07:04:55;20.90;75.10
59469;DHT22;45277;52.768;18.262;2023-08-12T07:06:27;21.20;61.20
59469;DHT22;45277;52.768;18.262;2023-08-12T07:07:59;21.40;61.90
59469;DHT22;45277;52.768;18.262;2023-08-12T07:09:30;21.60;42.50
59469;DHT22;45277;52.768;18.262;2023-08-12T07:11:01;21.60;29.90
59469;DHT22;45277;52.768;18.262;2023-08-12T07:12:33;21.70;28.00
59469;DHT22;45277;52.768;18.262;2023-08-12T07:14:04;21.80;48.60
59469;DHT22;45277;52.768;18.262;2023-08-12T07:15:36;22.00;24.70
59469;DHT22;45277;52.768;18.262;2023-08-12T07:17:07;22.00;18.40
59469;DHT22;45277;52.768;18.262;2023-08-12T07:18:39;22.10;16.80
59469;DHT22;45277;52.768;18.262;2023-08-12T07:20:10;22.20;13.80
59469;DHT22;45277;52.768;18.262;2023-08-12T07:21:42;22.10;10.40
59469;DHT22;45277;52.768;18.262;2023-08-12T07:23:13;22.10;15.50
59469;DHT22;45277;52.768;18.262;2023-08-12T07:24:45;22.00;8.10
59469;DHT22;45277;52.768;18.262;2023-08-12T07:26:17;21.80;9.90
59469;DHT22;45277;52.768;18.262;2023-08-12T07:27:48;21.80;19.40
59469;DHT22;45277;52.768;18.262;2023-08-12T07:29:21;21.90;13.70
59469;DHT22;45277;52.768;18.262;2023-08-12T07:30:52;22.00;14.10
59469;DHT22;45277;52.768;18.262;2023-08-12T07:32:24;22.00;9.60
59469;DHT22;45277;52.768;18.262;2023-08-12T07:33:55;22.10;7.40
59469;DHT22;45277;52.768;18.262;2023-08-12T07:35:27;22.00;5.40
59469;DHT22;45277;52.768;18.262;2023-08-12T07:36:58;22.10;6.90
59469;DHT22;45277;52.768;18.262;2023-08-12T07:38:29;22.10;2.90
59469;DHT22;45277;52.768;18.262;2023-08-12T07:40:01;22.20;2.80
59469;DHT22;45277;52.768;18.262;2023-08-12T07:41:34;22.30;3.00
59469;DHT22;45277;52.768;18.262;2023-08-12T07:43:05;22.30;1.10
59469;DHT22;45277;52.768;18.262;2023-08-12T07:44:37;22.40;1.00
59469;DHT22;45277;52.768;18.262;2023-08-12T07:46:09;22.50;1.00
59469;DHT22;45277;52.768;18.262;2023-08-12T07:47:40;22.60;1.00
59469;DHT22;45277;52.768;18.262;2023-08-12T07:49:11;22.60;1.00
59469;DHT22;45277;52.768;18.262;2023-08-12T07:50:43;22.60;1.00
59469;DHT22;45277;52.768;18.262;2023-08-12T07:52:14;22.70;1.00
59469;DHT22;45277;52.768;18.262;2023-08-12T07:53:46;22.60;1.00
59469;DHT22;45277;52.768;18.262;2023-08-12T07:55:18;22.60;1.00
59469;DHT22;45277;52.768;18.262;2023-08-12T07:56:50;22.80;1.00
59469;DHT22;45277;52.768;18.262;2023-08-12T07:58:23;22.90;1.00
59469;DHT22;45277;52.768;18.262;2023-08-12T07:59:54;23.00;1.00
59469;DHT22;45277;52.768;18.262;2023-08-12T08:01:26;23.10;1.00
59469;DHT22;45277;52.768;18.262;2023-08-12T08:02:57;23.00;1.00
59469;DHT22;45277;52.768;18.262;2023-08-12T08:04:29;23.10;1.00
59469;DHT22;45277;52.768;18.262;2023-08-12T08:06:00;23.20;1.00
59469;DHT22;45277;52.768;18.262;2023-08-12T08:07:32;23.40;1.00
59469;DHT22;45277;52.768;18.262;2023-08-12T08:09:03;23.40;1.00
59469;DHT22;45277;52.768;18.262;2023-08-12T08:10:34;23.40;1.00
59469;DHT22;45277;52.768;18.262;2023-08-12T08:12:08;23.30;1.00
59469;DHT22;45277;52.768;18.262;2023-08-12T08:13:40;23.40;1.00
59469;DHT22;45277;52.768;18.262;2023-08-12T08:15:12;23.50;1.00
59469;DHT22;45277;52.768;18.262;2023-08-12T08:16:43;23.50;1.00
59469;DHT22;45277;52.768;18.262;2023-08-12T08:18:15;23.50;1.00
59469;DHT22;45277;52.768;18.262;2023-08-12T08:19:50;23.40;1.00
59469;DHT22;45277;52.768;18.262;2023-08-12T08:21:23;23.40;1.00
59469;DHT22;45277;52.768;18.262;2023-08-12T08:22:55;23.50;1.00
59469;DHT22;45277;52.768;18.262;2023-08-12T08:24:27;23.50;1.00
59469;DHT22;45277;52.768;18.262;2023-08-12T08:25:58;23.60;1.00
59469;DHT22;45277;52.768;18.262;2023-08-12T08:27:30;23.70;1.00
59469;DHT22;45277;52.768;18.262;2023-08-12T08:29:02;23.80;1.00
59469;DHT22;45277;52.768;18.262;2023-08-12T08:30:34;23.80;1.00
59469;DHT22;45277;52.768;18.262;2023-08-12T08:32:06;23.90;1.00
59469;DHT22;45277;52.768;18.262;2023-08-12T08:33:37;24.00;1.00
59469;DHT22;45277;52.768;18.262;2023-08-12T08:35:09;24.20;1.00
59469;DHT22;45277;52.768;18.262;2023-08-12T08:36:41;24.20;1.00
59469;DHT22;45277;52.768;18.262;2023-08-12T08:38:12;24.20;1.00
59469;DHT22;45277;52.768;18.262;2023-08-12T08:39:44;24.30;1.00
59469;DHT22;45277;52.768;18.262;2023-08-12T08:41:16;24.40;1.00
59469;DHT22;45277;52.768;18.262;2023-08-12T08:42:52;24.50;1.00
59469;DHT22;45277;52.768;18.262;2023-08-12T08:44:29;24.60;1.00
59469;DHT22;45277;52.768;18.262;2023-08-12T08:46:05;24.70;1.00
59469;DHT22;45277;52.768;18.262;2023-08-12T08:47:36;24.60;1.00
59469;DHT22;45277;52.768;18.262;2023-08-12T08:49:09;24.40;1.00
59469;DHT22;45277;52.768;18.262;2023-08-12T08:50:42;24.40;1.00
59469;DHT22;45277;52.768;18.262;2023-08-12T08:52:14;24.60;1.00
59469;DHT22;45277;52.768;18.262;2023-08-12T08:53:47;24.60;1.00
59469;DHT22;45277;52.768;18.262;2023-08-12T08:55:19;24.70;1.00
59469;DHT22;45277;52.768;18.262;2023-08-12T08:56:51;24.60;1.00
59469;DHT22;45277;52.768;18.262;2023-08-12T08:58:22;24.60;1.00
59469;DHT22;45277;52.768;18.262;2023-08-12T08:59:54;24.60;1.00
59469;DHT22;45277;52.768;18.262;2023-08-12T09:01:27;24.50;1.00
59469;DHT22;45277;52.768;18.262;2023-08-12T09:03:01;24.60;1.00
59469;DHT22;45277;52.768;18.262;2023-08-12T09:04:34;24.80;1.00
59469;DHT22;45277;52.768;18.262;2023-08-12T09:06:05;24.90;1.00
59469;DHT22;45277;52.768;18.262;2023-08-12T09:07:38;24.90;1.00
59469;DHT22;45277;52.768;18.262;2023-08-12T09:09:13;24.80;1.00
59469;DHT22;45277;52.768;18.262;2023-08-12T09:10:46;24.70;1.00
59469;DHT22;45277;52.768;18.262;2023-08-12T09:12:19;24.60;1.00
59469;DHT22;45277;52.768;18.262;2023-08-12T09:13:52;24.70;1.00
59469;DHT22;45277;52.768;18.262;2023-08-12T09:15:24;24.80;1.00
59469;DHT22;45277;52.768;18.262;2023-08-12T09:16:56;25.00;1.00
59469;DHT22;45277;52.768;18.262;2023-08-12T09:18:29;25.00;1.00
59469;DHT22;45277;52.768;18.262;2023-08-12T09:20:01;25.20;1.00
59469;DHT22;45277;52.768;18.262;2023-08-12T09:21:33;25.10;1.00
59469;DHT22;45277;52.768;18.262;2023-08-12T09:23:05;25.10;1.00
59469;DHT22;45277;52.768;18.262;2023-08-12T09:24:40;25.20;1.00
59469;DHT22;45277;52.768;18.262;2023-08-12T09:26:19;25.30;1.00
59469;DHT22;45277;52.768;18.262;2023-08-12T09:27:54;25.20;1.00
59469;DHT22;45277;52.768;18.262;2023-08-12T09:29:34;25.00;1.00
59469;DHT22;45277;52.768;18.262;2023-08-12T09:31:06;25.10;1.00
59469;DHT22;45277;52.768;18.262;2023-08-12T09:32:38;25.30;1.00
59469;DHT22;45277;52.768;18.262;2023-08-12T09:34:09;25.50;1.00
59469;DHT22;45277;52.768;18.262;2023-08-12T09:35:41;25.60;1.00
59469;DHT22;45277;52.768;18.262;2023-08-12T09:37:15;25.80;1.00